Date,TemperatureHighF,TemperatureAvgF,TemperatureLowF,DewpointHighF,DewpointAvgF,DewpointLowF,HumidityHigh,HumidityAvg,HumidityLow,PressureMaxIn,PressureMinIn,WindSpeedMaxMPH,WindSpeedAvgMPH,GustSpeedMaxMPH,PrecipitationSumIn
2012-9-26,66.6,64.1,60.1,60.8,59.3,57.2,90,84,79,30.12,30.05,5,3,12,0.54
2012-9-27,69.3,63.5,61.5,63.1,60.8,58.6,94,91,80,30.19,30.06,4,0,8,0.69
2012-9-28,62.1,56.8,55.2,60.0,54.2,51.3,94,91,85,30.11,30.08,3,1,6,0.00
2012-9-29,62.2,49.7,42.8,52.1,46.3,40.9,94,88,67,30.08,30.04,2,1,5,0.00
2012-9-30,54.9,52.4,48.6,49.5,48.1,46.1,91,86,81,29.93,29.88,2,1,4,0.07
2012-10-1,77.0,62.7,44.1,55.3,47.5,42.4,95,63,33,29.96,29.89,4,1,6,0.01
2012-10-2,81.5,70.2,58.5,69.1,63.4,52.1,93,80,62,29.89,29.81,4,1,8,0.37
2012-10-3,68.7,67.6,65.5,63.7,63.1,61.2,88,86,82,30.06,29.89,3,1,5,0.00
2012-10-4,79.7,66.2,59.5,60.7,55.7,50.2,92,72,37,30.20,30.14,4,1,9,0.00
2012-10-5,81.3,63.8,56.1,59.3,54.2,52.0,87,73,43,30.14,29.97,5,3,9,0.00
2012-10-6,64.6,55.9,46.2,55.6,40.6,33.4,91,60,33,30.09,29.83,6,3,15,0.17
2012-10-7,50.9,47.2,44.4,42.3,40.3,37.3,87,77,61,30.09,30.03,1,0,4,0.00
2012-10-8,50.5,45.6,33.4,42.0,38.4,31.6,95,77,59,30.24,30.16,3,1,7,0.00
2012-10-9,53.6,43.5,33.4,42.6,37.7,31.4,93,81,61,30.18,30.15,2,1,6,0.00
2012-10-10,61.0,50.7,44.2,46.3,41.8,37.1,87,73,47,30.00,29.92,6,3,17,0.01
2012-10-11,43.3,37.1,33.8,31.4,29.1,27.9,80,73,57,30.28,30.15,4,2,8,0.00
2012-10-12,63.3,48.7,35.6,38.9,31.8,25.3,78,56,26,30.40,30.14,4,1,8,0.00
2012-10-13,36.0,32.9,30.4,28.7,25.8,24.1,82,75,65,30.39,30.35,2,0,2,0.00
2012-10-14,78.3,64.8,58.3,57.4,49.0,42.9,65,57,48,30.08,29.97,6,4,11,0.00
2012-10-15,70.9,57.3,47.8,57.3,47.8,43.6,90,71,52,29.88,29.68,8,3,13,0.22
2012-10-16,48.4,46.5,45.5,43.8,42.3,41.5,87,85,83,29.96,29.88,3,1,5,0.00
2012-10-17,81.5,56.0,40.3,45.3,40.0,36.7,87,59,26,29.92,29.78,5,2,8,0.00
2012-10-18,73.6,61.1,50.0,49.3,45.7,38.7,91,59,38,29.82,29.66,10,4,25,0.50
2012-10-19,68.7,55.0,43.0,50.0,46.3,41.1,94,75,38,29.81,29.69,4,2,10,0.01
2012-10-20,59.0,51.7,46.4,46.2,41.5,38.6,83,69,55,29.84,29.73,5,3,11,0.01
2012-10-21,61.7,48.6,42.8,45.8,41.7,39.3,89,78,53,30.12,29.94,3,2,7,0.00
2012-10-22,79.2,57.6,40.8,49.5,43.3,36.5,86,62,34,30.18,30.07,3,2,7,0.00
2012-10-23,82.4,65.4,60.6,52.8,49.9,44.6,69,59,30,30.09,30.02,6,3,11,0.00
2012-10-24,86.4,66.4,59.5,54.5,51.7,50.5,74,61,33,30.15,30.06,4,2,8,0.00
2012-10-25,91.6,68.8,54.9,54.7,49.9,46.2,79,56,22,30.12,30.01,5,1,9,0.00
2012-10-26,90.0,66.5,55.4,56.7,53.1,50.0,82,65,29,30.09,29.98,4,2,8,0.00
2012-10-27,59.2,52.8,46.8,52.0,47.9,44.6,93,84,75,30.00,29.93,4,1,8,0.06
2012-10-28,46.6,45.2,42.4,44.5,42.8,40.6,93,92,90,29.98,29.80,2,1,8,0.21
2012-10-29,42.6,41.7,35.6,40.5,39.5,33.5,93,92,91,29.80,29.10,9,2,17,2.72
2012-10-30,45.0,39.5,33.8,43.1,37.4,32.0,93,92,89,29.30,28.96,8,3,14,0.76
2012-10-31,39.2,36.6,34.7,37.9,34.7,32.9,95,93,91,29.51,29.38,6,3,11,0.35
2012-11-1,43.2,40.5,37.8,39.4,37.9,35.9,93,90,86,29.72,29.64,4,3,12,0.30
2012-11-2,43.2,38.4,34.7,33.7,32.3,29.8,90,79,63,29.97,29.71,8,3,15,0.07
2012-11-3,43.5,38.7,35.8,34.0,31.2,29.8,80,75,64,30.08,29.98,6,3,14,0.00
2012-11-4,41.7,37.5,35.8,33.1,28.4,25.4,86,70,54,30.08,30.05,3,1,8,0.00
2012-11-5,45.0,38.5,35.1,30.9,27.5,23.3,81,65,48,30.14,30.06,3,1,8,0.00
2012-11-6,64.2,37.5,25.9,30.6,24.8,21.1,82,64,24,30.12,29.93,4,0,5,0.00
2012-11-7,37.8,30.6,27.9,28.2,24.5,22.4,82,78,69,29.95,29.90,1,0,3,0.00
2012-11-8,51.1,36.8,23.5,30.0,25.6,18.5,85,65,42,30.14,30.00,5,1,11,0.00
2012-11-9,39.0,31.1,28.0,31.4,27.2,25.5,90,85,74,30.23,30.13,3,1,7,0.00
2012-11-10,71.4,58.2,41.2,40.7,36.7,31.4,80,47,26,30.25,30.16,5,2,11,0.00
2012-11-11,80.6,58.5,49.8,40.6,35.8,32.5,58,44,19,30.36,30.20,5,2,11,0.00
2012-11-12,64.4,59.9,58.3,47.6,44.0,35.5,61,56,39,30.21,30.17,6,4,11,0.00
2012-11-13,42.6,35.6,30.9,34.7,23.6,21.3,88,62,45,30.48,30.28,7,2,11,0.01
2012-11-14,46.8,34.5,28.2,27.6,24.3,22.5,80,67,45,30.51,30.34,2,1,8,0.00
2012-11-15,62.8,37.8,24.8,31.2,25.6,21.2,86,66,25,30.34,30.25,2,0,4,0.00
2012-11-16,62.4,45.6,26.1,33.3,28.8,22.7,88,56,27,30.38,30.28,1,0,5,0.00
2012-11-17,67.5,42.5,25.7,34.5,27.8,22.1,87,61,24,30.56,30.45,2,0,4,0.00
2012-11-18,44.2,35.9,30.4,28.9,26.5,24.6,81,69,54,30.50,30.49,4,0,5,0.00
2012-11-19,62.2,42.8,28.4,37.6,31.4,24.6,87,66,38,30.40,30.21,1,0,2,0.00
2012-11-20,63.1,45.0,34.2,38.4,34.1,30.6,87,67,34,30.15,30.07,1,0,2,0.00
2012-11-21,51.4,37.6,31.5,38.0,31.9,28.0,88,80,62,30.92,30.11,1,0,2,0.00
2012-11-22,71.2,55.9,31.5,35.7,29.1,25.4,80,39,19,30.22,30.07,4,1,8,0.00
2012-11-23,54.3,45.2,30.9,45.6,31.8,20.2,90,60,44,30.01,29.78,11,4,24,0.02
2012-11-24,32.7,30.8,27.5,25.2,23.6,20.2,87,74,65,30.02,29.94,8,4,21,0.00
2012-11-25,46.2,36.6,28.0,22.9,20.2,18.1,74,53,34,30.02,29.84,6,3,16,0.00
2012-11-26,55.8,39.9,30.4,30.0,24.7,19.8,70,56,30,30.17,29.96,3,1,8,0.00
2012-11-27,38.7,34.7,32.4,32.5,29.5,24.7,89,81,67,30.25,30.15,2,0,6,0.02
2012-11-28,36.7,33.6,30.9,24.2,22.8,21.6,72,64,59,30.28,30.22,4,2,13,0.00
2012-11-29,51.3,35.5,25.2,26.9,21.7,18.6,78,59,32,30.37,30.25,4,2,8,0.00
2012-11-30,57.9,44.3,32.4,31.3,26.1,20.8,63,50,35,30.27,30.17,6,2,11,0.00
2012-12-1,65.1,47.8,39.7,39.1,33.4,28.9,66,58,37,30.30,30.21,4,2,8,0.00
2012-12-2,52.9,52.1,47.8,40.5,39.9,36.6,66,63,61,30.21,30.13,5,5,11,0.00
2012-12-3,56.1,55.0,54.3,55.0,53.7,52.6,96,96,94,30.21,30.13,2,1,5,0.00
2012-12-4,72.7,60.3,46.4,54.8,51.1,43.3,90,72,47,30.15,29.97,7,4,14,0.37
2012-12-5,47.8,39.9,29.5,43.3,32.8,21.1,92,77,51,30.32,30.10,7,2,14,0.02
2012-12-6,60.3,37.7,23.2,30.4,23.6,18.8,85,60,25,30.30,30.02,2,0,4,0.00
2012-12-7,51.3,49.0,43.3,49.8,46.9,31.0,96,93,59,30.01,29.85,4,1,8,0.71
2012-12-8,55.6,53.9,50.7,52.6,51.5,49.6,96,91,88,29.87,29.82,4,2,9,0.14
2012-12-9,57.2,48.9,40.3,47.8,43.1,35.4,88,81,70,30.09,29.90,5,2,11,0.05
2012-12-10,57.2,46.7,0.0,53.8,46.1,32.5,93,85,85,30.32,29.64,5,3,12,0.46
2012-12-11,39.7,36.0,33.4,33.7,30.1,27.3,93,80,67,30.78,30.32,3,2,11,0.01
2012-12-12,52.0,35.2,25.3,27.6,23.6,20.1,87,66,31,31.41,30.99,2,0,4,0.00
2012-12-13,42.3,25.7,20.1,28.8,20.9,17.2,89,82,56,31.28,31.16,0,0,2,0.00
2012-12-14,40.5,33.0,28.9,25.9,22.3,20.4,71,65,56,31.29,29.86,4,3,8,0.00
2012-12-15,36.9,33.6,29.8,26.2,24.2,22.6,81,69,56,29.86,29.73,1,0,2,0.00
2012-12-16,59.0,54.2,48.6,50.0,43.5,30.6,79,67,49,29.88,29.56,6,3,10,0.00
2012-12-17,59.4,51.5,45.0,52.5,48.1,43.1,93,88,77,29.58,29.25,4,1,6,0.77
2012-12-18,46.0,39.2,37.6,44.2,35.8,33.5,95,87,85,29.50,29.24,8,5,20,0.08